Time;durP1;ratioP1;P1;durP2;ratioP2;P2;SDS_P1;SDS_P2;PMS_P1;PMS_P2;Temp;Humidity;BMP_temperature;BMP_pressure;BME280_temperature;BME280_humidity;BME280_pressure;Samples;Min_cycle;Max_cycle;Signal;HPM_P1;HPM_P2
2022/06/18 00:00:08;;;;;;;14.10;6.97;;;;;;;;;;5052084;28;20565;-68
2022/06/18 00:02:34;;;;;;;10.30;6.13;;;;;;;;;;5031626;28;20057;-68
2022/06/18 00:05:00;;;;;;;8.73;6.18;;;;;;;;;;5029974;28;20073;-68
2022/06/18 00:07:26;;;;;;;9.07;5.82;;;;;;;;;;5038307;28;20037;-68
2022/06/18 00:10:04;;;;;;;10.10;6.60;;;;;;;;;;5045517;28;20501;-68
2022/06/18 00:15:22;;;;;;;10.57;7.97;;;20.20;99.90;;;;;;5051407;28;20049;-68
2022/06/18 00:17:48;;;;;;;11.30;6.30;;;20.20;99.90;;;;;;5050087;28;20041;-68
2022/06/18 00:20:16;;;;;;;9.07;6.70;;;20.10;99.90;;;;;;5051178;28;20048;-68
2022/06/18 00:22:48;;;;;;;10.05;6.75;;;20.10;99.90;;;;;;5052676;28;20045;-68
2022/06/18 00:25:31;;;;;;;8.77;7.10;;;20.20;99.90;;;;;;5050507;28;20182;-68
2022/06/18 00:27:57;;;;;;;13.93;7.82;;;;;;;;;;5050635;28;20091;-68
2022/06/18 00:30:25;;;;;;;9.73;6.78;;;20.10;99.90;;;;;;5034440;28;20040;-68
2022/06/18 00:32:52;;;;;;;10.50;7.10;;;20.10;99.90;;;;;;5050940;28;20095;-68
2022/06/18 00:35:19;;;;;;;10.85;7.20;;;20.10;99.90;;;;;;5051027;28;20086;-68
2022/06/18 00:37:46;;;;;;;10.35;7.22;;;20.00;99.90;;;;;;5050695;28;20049;-68
2022/06/18 00:40:26;;;;;;;10.52;7.10;;;19.90;99.90;;;;;;5049909;28;20052;-68
2022/06/18 00:42:52;;;;;;;10.45;7.85;;;;;;;;;;5033754;28;20041;-68
2022/06/18 00:45:23;;;;;;;10.05;8.13;;;;;;;;;;5049861;28;20095;-68
2022/06/18 00:48:09;;;;;;;10.25;7.60;;;;;;;;;;5051621;28;20045;-69
2022/06/18 00:50:40;;;;;;;10.27;7.60;;;;;;;;;;5040876;28;20049;-68
2022/06/18 00:53:09;;;;;;;9.63;8.00;;;;;;;;;;5050799;28;20033;-68
2022/06/18 00:55:44;;;;;;;10.45;9.30;;;;;;;;;;5034150;28;20056;-68
2022/06/18 00:58:23;;;;;;;12.82;8.60;;;;;;;;;;5050630;28;20055;-68
2022/06/18 01:00:50;;;;;;;9.60;8.07;;;;;;;;;;5034930;28;20038;-68
2022/06/18 01:03:32;;;;;;;12.23;9.18;;;19.40;99.90;;;;;;5050672;28;20127;-68
2022/06/18 01:06:02;;;;;;;11.82;8.95;;;19.50;99.90;;;;;;5050891;28;20486;-68
2022/06/18 01:08:30;;;;;;;11.50;8.82;;;19.40;99.90;;;;;;5042931;28;20041;-68
2022/06/18 01:11:05;;;;;;;15.80;10.25;;;19.30;99.90;;;;;;5047891;28;20075;-68
2022/06/18 01:13:35;;;;;;;13.88;9.85;;;19.20;99.90;;;;;;5051025;28;20033;-68
2022/06/18 01:16:03;;;;;;;11.10;9.23;;;19.20;99.90;;;;;;5044628;28;20041;-68
2022/06/18 01:18:29;;;;;;;12.43;10.30;;;19.10;99.90;;;;;;5037579;28;20478;-68
2022/06/18 01:21:27;;;;;;;12.38;9.52;;;19.00;99.90;;;;;;5029349;28;20043;-68
2022/06/18 01:24:01;;;;;;;12.32;9.48;;;19.00;99.90;;;;;;5031916;28;20045;-68
2022/06/18 01:26:27;;;;;;;11.82;9.75;;;18.90;99.90;;;;;;5035676;28;20037;-68
2022/06/18 01:28:53;;;;;;;13.52;10.88;;;;;;;;;;5033069;28;20517;-68
2022/06/18 01:31:19;;;;;;;14.55;10.55;;;19.00;99.90;;;;;;5051186;28;20037;-68
2022/06/18 01:33:46;;;;;;;13.85;10.05;;;18.80;99.90;;;;;;5034095;28;20508;-68
2022/06/18 01:36:13;;;;;;;11.18;9.65;;;18.70;99.90;;;;;;5033342;28;20037;-68
2022/06/18 01:38:44;;;;;;;14.20;11.27;;;18.70;99.90;;;;;;5036026;28;20048;-68
2022/06/18 01:44:12;;;;;;;17.30;9.05;;;18.60;99.90;;;;;;5034977;28;20053;-68
2022/06/18 01:46:43;;;;;;;11.45;9.35;;;18.50;99.90;;;;;;5035281;28;20489;-68
2022/06/18 01:49:11;;;;;;;10.88;9.60;;;18.50;99.90;;;;;;5033017;28;20057;-68
2022/06/18 01:51:40;;;;;;;11.75;9.52;;;18.50;99.90;;;;;;5033980;28;20045;-68
2022/06/18 01:54:15;;;;;;;11.00;9.90;;;18.50;99.90;;;;;;5034858;28;20112;-68
2022/06/18 01:56:44;;;;;;;13.82;11.32;;;18.50;99.90;;;;;;5033478;28;20383;-67
2022/06/18 01:59:27;;;;;;;14.40;10.93;;;18.40;99.90;;;;;;5022572;28;20037;-67
2022/06/18 02:01:56;;;;;;;12.65;9.90;;;18.40;99.90;;;;;;5051283;28;20490;-67
2022/06/18 02:04:24;;;;;;;17.30;10.45;;;18.40;99.90;;;;;;5052749;28;20048;-68
2022/06/18 02:06:52;;;;;;;15.77;10.35;;;;;;;;;;5054368;28;20072;-68
2022/06/18 02:09:30;;;;;;;18.38;11.93;;;18.30;99.90;;;;;;5048161;28;20042;-68
2022/06/18 02:12:00;;;;;;;15.40;12.25;;;18.40;99.90;;;;;;5052036;28;20553;-67
2022/06/18 02:14:27;;;;;;;15.63;13.25;;;18.30;99.90;;;;;;5053103;28;20082;-67
2022/06/18 02:16:56;;;;;;;17.85;12.30;;;18.20;99.90;;;;;;5052189;28;20076;-67
2022/06/18 02:19:22;;;;;;;17.45;13.57;;;18.20;99.90;;;;;;5036909;28;20045;-67
2022/06/18 02:21:49;;;;;;;18.83;13.35;;;;;;;;;;5053133;28;20052;-67
2022/06/18 02:24:16;;;;;;;19.35;13.68;;;;;;;;;;5052661;28;20517;-67
2022/06/18 02:26:42;;;;;;;20.25;12.90;;;;;;;;;;5053157;28;20595;-67
2022/06/18 02:29:17;;;;;;;17.80;13.07;;;;;;;;;;5054086;28;20513;-67
2022/06/18 02:31:45;;;;;;;19.40;14.10;;;;;;;;;;5052289;28;20505;-67
2022/06/18 02:34:15;;;;;;;19.15;15.27;;;;;;;;;;5052947;28;20371;-68
2022/06/18 02:36:41;;;;;;;19.20;14.35;;;18.00;99.90;;;;;;5053581;28;20041;-67
2022/06/18 02:39:16;;;;;;;20.17;13.63;;;17.90;99.90;;;;;;5051621;28;20045;-67
2022/06/18 02:41:43;;;;;;;20.90;14.95;;;17.70;99.90;;;;;;5052984;28;20509;-68
2022/06/18 02:44:11;;;;;;;23.90;14.75;;;17.80;99.90;;;;;;5053852;28;20505;-68
2022/06/18 02:46:38;;;;;;;20.67;14.73;;;17.70;99.90;;;;;;5052020;28;20094;-68
2022/06/18 02:49:06;;;;;;;20.45;15.07;;;17.60;99.90;;;;;;5053600;28;20045;-67
2022/06/18 02:51:33;;;;;;;28.30;16.98;;;17.50;99.90;;;;;;5053310;28;20434;-67
2022/06/18 02:53:59;;;;;;;20.38;15.68;;;17.50;99.90;;;;;;5035718;28;20127;-67
2022/06/18 02:56:24;;;;;;;20.73;16.70;;;17.40;99.90;;;;;;5052805;28;20123;-67
2022/06/18 02:58:51;;;;;;;24.33;17.58;;;17.40;99.90;;;;;;5052547;28;20148;-67
2022/06/18 03:01:22;;;;;;;22.67;16.20;;;17.30;99.90;;;;;;5052881;28;20371;-68
2022/06/18 03:03:50;;;;;;;23.98;16.23;;;17.30;99.90;;;;;;5053589;28;20095;-68
2022/06/18 03:06:19;;;;;;;23.77;18.63;;;17.30;99.90;;;;;;5051735;28;20051;-68
2022/06/18 03:08:46;;;;;;;28.50;17.35;;;17.20;99.90;;;;;;5053418;28;20051;-67
2022/06/18 03:13:57;;;;;;;22.98;18.92;;;17.10;99.90;;;;;;5051143;28;20037;-67
2022/06/18 03:16:23;;;;;;;27.13;18.17;;;17.00;99.90;;;;;;5053741;28;20491;-67
2022/06/18 03:18:51;;;;;;;24.77;19.02;;;17.00;99.90;;;;;;5052176;28;20036;-67
2022/06/18 03:21:29;;;;;;;25.65;20.63;;;17.00;99.90;;;;;;5052796;28;20073;-68
2022/06/18 03:23:55;;;;;;;25.83;18.52;;;16.90;99.90;;;;;;5035127;28;20037;-67
2022/06/18 03:26:21;;;;;;;26.60;20.38;;;16.90;99.90;;;;;;5052961;28;20397;-68
2022/06/18 03:28:46;;;;;;;22.88;18.35;;;16.80;99.90;;;;;;5052249;28;20040;-68
2022/06/18 03:31:13;;;;;;;26.63;19.35;;;16.80;99.90;;;;;;5035231;28;20037;-67
2022/06/18 03:33:41;;;;;;;26.92;17.80;;;16.80;99.90;;;;;;5051720;28;20433;-67
2022/06/18 03:36:09;;;;;;;29.17;19.55;;;16.80;99.90;;;;;;5034658;28;20474;-67
2022/06/18 03:38:35;;;;;;;25.23;18.00;;;16.80;99.90;;;;;;5053431;28;20056;-68
2022/06/18 03:41:01;;;;;;;27.38;20.67;;;16.80;99.90;;;;;;5051652;28;20045;-68
2022/06/18 03:43:27;;;;;;;27.33;20.02;;;16.80;99.90;;;;;;5052965;28;20041;-68
2022/06/18 03:45:58;;;;;;;30.08;20.27;;;16.80;99.90;;;;;;5051095;28;20060;-68
2022/06/18 03:48:53;;;;;;;23.45;20.98;;;16.80;99.90;;;;;;5051156;28;20061;-68
2022/06/18 03:51:21;;;;;;;28.50;18.95;;;16.80;99.90;;;;;;5046037;28;20513;-67
2022/06/18 03:53:47;;;;;;;21.63;18.65;;;16.80;99.90;;;;;;5052569;28;20037;-67
2022/06/18 03:56:14;;;;;;;25.35;18.35;;;16.80;99.90;;;;;;5051776;28;20033;-68
2022/06/18 03:58:41;;;;;;;26.10;18.40;;;16.80;99.90;;;;;;5051481;28;20041;-67
2022/06/18 04:01:08;;;;;;;29.95;20.48;;;16.80;99.90;;;;;;5050865;28;20391;-67
2022/06/18 04:03:34;;;;;;;24.20;19.50;;;16.80;99.90;;;;;;5051080;28;20494;-67
2022/06/18 04:05:59;;;;;;;28.58;21.38;;;16.80;99.90;;;;;;5052363;28;20047;-67
2022/06/18 04:08:25;;;;;;;26.48;20.33;;;16.80;99.90;;;;;;5051400;28;20060;-67
2022/06/18 04:10:51;;;;;;;20.58;17.75;;;16.70;99.90;;;;;;5051191;28;20048;-67
2022/06/18 04:13:17;;;;;;;31.92;21.65;;;16.70;99.90;;;;;;5051539;28;20120;-67
2022/06/18 04:15:42;;;;;;;25.95;19.63;;;16.70;99.90;;;;;;5051073;28;20090;-67
2022/06/18 04:18:12;;;;;;;23.73;19.73;;;16.80;99.90;;;;;;5050216;28;20448;-67
2022/06/18 04:20:38;;;;;;;27.95;19.33;;;16.80;99.90;;;;;;5051583;28;20394;-67
2022/06/18 04:23:05;;;;;;;27.98;20.25;;;16.80;99.90;;;;;;5049836;28;20044;-67
2022/06/18 04:25:31;;;;;;;23.60;19.20;;;16.80;99.90;;;;;;5051072;28;20124;-67
2022/06/18 04:27:57;;;;;;;24.52;19.85;;;16.80;99.90;;;;;;5050472;28;20135;-67
2022/06/18 04:30:26;;;;;;;29.67;20.45;;;16.90;99.90;;;;;;5050302;28;20037;-67
2022/06/18 04:32:53;;;;;;;25.45;20.58;;;16.90;99.90;;;;;;5051849;28;20033;-67
2022/06/18 04:35:19;;;;;;;28.20;19.38;;;16.90;99.90;;;;;;5051346;28;20460;-67
2022/06/18 04:37:45;;;;;;;24.77;19.92;;;16.90;99.90;;;;;;5050052;28;20044;-67
2022/06/18 04:40:32;;;;;;;26.08;19.70;;;17.00;99.90;;;;;;5051054;28;20381;-67
2022/06/18 04:43:07;;;;;;;23.80;19.10;;;17.10;99.90;;;;;;5050742;28;20045;-67
2022/06/18 04:45:34;;;;;;;25.95;18.05;;;17.10;99.90;;;;;;5050004;28;20056;-67
2022/06/18 04:48:00;;;;;;;22.55;16.55;;;17.10;99.90;;;;;;5051769;28;20060;-67
2022/06/18 04:50:30;;;;;;;24.27;16.67;;;17.10;99.90;;;;;;5051262;28;20153;-67
2022/06/18 04:52:55;;;;;;;25.65;18.13;;;17.20;99.90;;;;;;5049388;28;20040;-67
2022/06/18 04:55:21;;;;;;;23.77;18.13;;;17.20;99.90;;;;;;5034322;28;20045;-67
2022/06/18 04:57:47;;;;;;;24.52;18.20;;;17.30;99.90;;;;;;5050887;28;20041;-67
2022/06/18 05:00:14;;;;;;;26.00;18.42;;;17.40;99.90;;;;;;5054915;28;20482;-67
2022/06/18 05:02:40;;;;;;;21.80;17.70;;;17.40;99.90;;;;;;5054912;28;20045;-67
2022/06/18 05:05:10;;;;;;;21.42;16.42;;;17.50;99.90;;;;;;5037522;28;20101;-67
2022/06/18 05:07:36;;;;;;;23.63;17.27;;;17.50;99.90;;;;;;5038071;28;20123;-67
2022/06/18 05:10:03;;;;;;;23.63;16.63;;;17.60;99.90;;;;;;5055373;28;20474;-67
2022/06/18 05:12:29;;;;;;;26.58;17.40;;;17.70;99.90;;;;;;5053950;28;20084;-67
2022/06/18 05:14:55;;;;;;;19.60;16.17;;;17.80;99.90;;;;;;5055359;28;20068;-67
2022/06/18 05:17:27;;;;;;;21.38;15.80;;;17.80;99.90;;;;;;5055994;28;20494;-67
2022/06/18 05:19:53;;;;;;;20.98;13.95;;;17.90;99.90;;;;;;5054457;28;20029;-67
2022/06/18 05:22:18;;;;;;;21.58;15.05;;;18.00;99.90;;;;;;5054460;28;20482;-67
2022/06/18 05:24:44;;;;;;;22.23;13.27;;;18.00;99.90;;;;;;5053961;28;20037;-67
2022/06/18 05:27:21;;;;;;;17.67;13.20;;;18.10;99.90;;;;;;5054728;28;20033;-67
2022/06/18 05:29:46;;;;;;;20.45;14.77;;;18.10;99.90;;;;;;5043320;28;20037;-67
2022/06/18 05:32:12;;;;;;;21.50;13.02;;;18.20;99.90;;;;;;5054397;28;20032;-66
2022/06/18 05:34:38;;;;;;;18.77;11.82;;;18.20;99.90;;;;;;5048035;28;20025;-66
2022/06/18 05:37:12;;;;;;;15.88;12.00;;;18.30;99.90;;;;;;5027828;28;20124;-66
2022/06/18 05:39:38;;;;;;;21.77;12.50;;;18.40;99.90;;;;;;5050585;28;20037;-67
2022/06/18 05:42:04;;;;;;;15.93;11.27;;;18.50;99.90;;;;;;5039334;28;20676;-67
2022/06/18 05:44:30;;;;;;;19.08;10.07;;;18.60;99.90;;;;;;5049534;28;20041;-66
2022/06/18 05:46:55;;;;;;;17.13;9.80;;;18.70;99.90;;;;;;5042235;28;20055;-66
2022/06/18 05:49:21;;;;;;;13.38;9.75;;;18.80;99.90;;;;;;5052645;28;20501;-66
2022/06/18 05:51:47;;;;;;;18.83;10.27;;;18.80;99.90;;;;;;5053171;28;20099;-66
2022/06/18 05:54:12;;;;;;;16.85;9.50;;;18.90;99.90;;;;;;5051011;28;20398;-66
2022/06/18 05:56:38;;;;;;;17.35;9.75;;;18.90;99.90;;;;;;5032076;28;20205;-66
2022/06/18 05:59:03;;;;;;;18.92;9.65;;;19.00;99.90;;;;;;5029619;28;20132;-66
2022/06/18 06:01:29;;;;;;;18.52;9.32;;;19.10;99.90;;;;;;5031612;28;20397;-66
2022/06/18 06:03:56;;;;;;;14.52;9.15;;;19.10;99.90;;;;;;5032763;28;20040;-66
2022/06/18 06:06:22;;;;;;;14.18;8.43;;;19.20;99.90;;;;;;5040627;28;20132;-66
2022/06/18 06:08:49;;;;;;;14.57;8.68;;;19.20;99.90;;;;;;5049139;28;20398;-66
2022/06/18 06:11:30;;;;;;;14.70;8.80;;;19.20;99.90;;;;;;5049378;28;20033;-66
2022/06/18 06:13:57;;;;;;;14.68;8.82;;;19.20;99.90;;;;;;5032246;28;20048;-66
2022/06/18 06:16:23;;;;;;;16.13;9.82;;;19.30;99.90;;;;;;5038947;28;20457;-67
2022/06/18 06:18:49;;;;;;;13.02;8.65;;;19.40;99.90;;;;;;5049546;28;20565;-67
2022/06/18 06:21:16;;;;;;;15.95;8.63;;;19.50;99.90;;;;;;5049389;28;20143;-67
2022/06/18 06:23:41;;;;;;;15.88;9.40;;;19.60;99.90;;;;;;5049322;28;20626;-66
2022/06/18 06:26:20;;;;;;;12.43;8.27;;;19.60;99.90;;;;;;5049610;28;20084;-67
2022/06/18 06:28:47;;;;;;;13.70;8.02;;;19.60;99.90;;;;;;5049195;28;20405;-67
2022/06/18 06:31:12;;;;;;;12.80;7.45;;;19.60;99.90;;;;;;5049034;28;20072;-66
2022/06/18 06:33:39;;;;;;;9.77;6.28;;;19.70;99.90;;;;;;5050617;28;20103;-66
2022/06/18 06:36:05;;;;;;;12.95;7.03;;;19.60;99.90;;;;;;5050219;28;20104;-66
2022/06/18 06:38:32;;;;;;;13.82;5.85;;;19.60;99.90;;;;;;5050005;28;20057;-66
2022/06/18 06:40:59;;;;;;;14.75;5.28;;;19.70;99.90;;;;;;5049770;28;20063;-66
2022/06/18 06:43:25;;;;;;;11.10;6.00;;;19.90;99.90;;;;;;5039050;28;20049;-66
2022/06/18 06:45:51;;;;;;;10.80;4.95;;;19.80;99.90;;;;;;5028764;28;20053;-67
2022/06/18 06:48:16;;;;;;;7.72;4.25;;;19.80;99.90;;;;;;5031551;28;20056;-66
2022/06/18 06:50:45;;;;;;;9.02;4.45;;;19.90;99.90;;;;;;5029657;28;20818;-66
2022/06/18 06:53:11;;;;;;;9.95;3.95;;;20.00;99.90;;;;;;5029785;28;20045;-67
2022/06/18 06:58:25;;;;;;;11.73;3.70;;;;;;;;;;5030236;28;20077;-67
2022/06/18 07:00:57;;;;;;;9.38;3.42;;;20.50;99.90;;;;;;5047965;28;20045;-67
2022/06/18 07:03:29;;;;;;;11.38;3.95;;;20.60;99.90;;;;;;5043886;28;20410;-67
2022/06/18 07:05:56;;;;;;;8.25;2.92;;;20.60;99.90;;;;;;5030107;28;20452;-67
2022/06/18 07:08:22;;;;;;;6.57;2.95;;;20.70;99.90;;;;;;5029586;28;20056;-67
2022/06/18 07:10:50;;;;;;;6.03;2.63;;;21.00;99.90;;;;;;5036452;28;20044;-67
2022/06/18 07:13:17;;;;;;;6.15;2.40;;;20.90;99.90;;;;;;5038654;28;20064;-67
2022/06/18 07:15:43;;;;;;;5.55;2.13;;;;;;;;;;5029836;28;20103;-66
2022/06/18 07:18:16;;;;;;;4.22;1.70;;;;;;;;;;5032331;28;20128;-66
2022/06/18 07:20:42;;;;;;;4.60;1.75;;;;;;;;;;5049045;28;20037;-65
2022/06/18 07:23:08;;;;;;;3.05;1.35;;;;;;;;;;5049875;28;20520;-67
2022/06/18 07:25:35;;;;;;;4.95;1.70;;;;;;;;;;5050880;28;20071;-66
2022/06/18 07:28:01;;;;;;;3.95;1.80;;;;;;;;;;5048440;28;20091;-67
2022/06/18 07:30:27;;;;;;;5.70;1.80;;;;;;;;;;5044932;28;20508;-67
2022/06/18 07:32:53;;;;;;;5.25;1.70;;;;;;;;;;5040190;28;20041;-67
2022/06/18 07:35:21;;;;;;;3.40;1.50;;;;;;;;;;5048505;28;20513;-67
2022/06/18 07:37:48;;;;;;;6.03;1.90;;;;;;;;;;5049020;28;20041;-67
2022/06/18 07:40:14;;;;;;;4.85;1.70;;;;;;;;;;5040186;28;20040;-68
2022/06/18 07:42:40;;;;;;;4.35;1.92;;;;;;;;;;5049069;28;20497;-67
2022/06/18 07:45:13;;;;;;;4.03;1.83;;;;;;;;;;5049068;28;20072;-67
2022/06/18 07:47:39;;;;;;;4.18;1.88;;;;;;;;;;5047654;28;20485;-68
2022/06/18 07:50:06;;;;;;;5.15;2.38;;;;;;;;;;5049278;28;20045;-67
2022/06/18 07:52:32;;;;;;;5.18;2.28;;;;;;;;;;5048969;28;20120;-66
2022/06/18 07:54:59;;;;;;;6.57;2.30;;;;;;;;;;5035138;28;20093;-66
2022/06/18 07:57:25;;;;;;;6.63;2.40;;;;;;;;;;5048213;28;20040;-67
2022/06/18 07:59:51;;;;;;;5.25;2.40;;;;;;;;;;5028007;28;20044;-68
2022/06/18 08:02:18;;;;;;;5.75;2.42;;;;;;;;;;5050501;28;20094;-65
2022/06/18 08:04:44;;;;;;;5.88;2.65;;;;;;;;;;5049408;28;20032;-63
2022/06/18 08:07:10;;;;;;;5.00;1.98;;;;;;;;;;5049675;28;20450;-64
2022/06/18 08:09:38;;;;;;;6.00;2.50;;;;;;;;;;5050871;28;20041;-67
2022/06/18 08:12:05;;;;;;;5.32;2.47;;;;;;;;;;5050827;28;20047;-64
2022/06/18 08:14:31;;;;;;;6.78;2.58;;;;;;;;;;5052461;28;20099;-67
2022/06/18 08:16:57;;;;;;;6.63;2.25;;;;;;;;;;5051151;28;20047;-67
2022/06/18 08:19:23;;;;;;;4.70;2.33;;;20.60;99.90;;;;;;5052747;28;20044;-67
2022/06/18 08:21:49;;;;;;;5.60;2.33;;;20.50;99.90;;;;;;5051108;28;20128;-67
2022/06/18 08:24:19;;;;;;;8.05;2.35;;;20.40;99.90;;;;;;5048638;28;20049;-67
2022/06/18 08:26:46;;;;;;;6.32;2.58;;;20.30;99.90;;;;;;5014751;28;20169;-67
2022/06/18 08:29:19;;;;;;;5.07;2.33;;;20.40;99.90;;;;;;5031149;28;20044;-67
2022/06/18 08:31:45;;;;;;;5.22;2.28;;;20.40;99.90;;;;;;5030910;28;20053;-67
2022/06/18 08:34:11;;;;;;;9.88;2.83;;;20.40;99.90;;;;;;5030122;28;20037;-67
2022/06/18 08:36:39;;;;;;;6.93;2.00;;;20.50;99.90;;;;;;5030616;28;20052;-67
2022/06/18 08:39:05;;;;;;;6.28;2.03;;;20.60;99.90;;;;;;5035649;28;20049;-67
2022/06/18 08:41:40;;;;;;;6.47;2.00;;;20.70;99.90;;;;;;5052741;28;20041;-68
2022/06/18 08:44:18;;;;;;;5.45;2.15;;;20.80;99.90;;;;;;5038329;28;20164;-68
2022/06/18 08:47:02;;;;;;;4.88;2.25;;;20.90;99.90;;;;;;5026285;28;20096;-67
2022/06/18 08:49:47;;;;;;;4.97;1.80;;;21.10;99.90;;;;;;5042739;28;20540;-66
2022/06/18 08:52:44;;;;;;;6.05;2.33;;;21.30;99.90;;;;;;5038560;28;20025;-64
2022/06/18 08:55:54;;;;;;;6.20;2.15;;;21.30;99.90;;;;;;5050520;28;20048;-64
2022/06/18 08:58:29;;;;;;;9.98;3.55;;;21.10;99.90;;;;;;5017200;28;20056;-66
2022/06/18 09:00:57;;;;;;;;;;;21.00;99.90;;;;;;5029627;28;20548;-66
2022/06/18 09:03:47;;;;;;;7.40;2.50;;;21.00;99.90;;;;;;5051045;28;20385;-66
2022/06/18 09:06:38;;;;;;;7.53;3.15;;;;;;;;;;5051326;28;20059;-67
2022/06/18 09:09:16;;;;;;;6.97;2.63;;;21.40;99.90;;;;;;5050349;28;20056;-67
2022/06/18 09:12:19;;;;;;;6.63;2.75;;;21.40;99.90;;;;;;5049957;28;20040;-66
2022/06/18 09:15:02;;;;;;;7.65;2.20;;;21.30;99.90;;;;;;5030610;28;20079;-68
2022/06/18 09:17:31;;;;;;;4.35;2.03;;;21.40;99.90;;;;;;5032988;28;20038;-69
2022/06/18 09:20:43;;;;;;;6.97;2.10;;;21.40;99.90;;;;;;5048238;28;20041;-67
2022/06/18 09:23:16;;;;;;;4.45;2.17;;;21.50;99.90;;;;;;5016581;28;20053;-67
2022/06/18 09:25:47;;;;;;;5.95;2.00;;;21.50;99.90;;;;;;5049960;28;20033;-67
2022/06/18 09:28:22;;;;;;;5.15;2.53;;;21.80;99.90;;;;;;5042633;28;20037;-68
2022/06/18 09:30:58;;;;;;;7.53;2.17;;;21.60;99.90;;;;;;5032668;28;20033;-68
2022/06/18 09:33:53;;;;;;;5.10;1.90;;;21.90;99.90;;;;;;5033382;28;20109;-69
2022/06/18 09:36:26;;;;;;;5.10;1.90;;;22.00;99.90;;;;;;5030838;28;20067;-68
2022/06/18 09:39:07;;;;;;;5.38;2.00;;;21.70;99.90;;;;;;5030420;28;20103;-67
2022/06/18 09:41:46;;;;;;;4.97;2.13;;;21.80;99.90;;;;;;5031470;28;20052;-68
2022/06/18 09:44:31;;;;;;;5.15;2.00;;;;;;;;;;5032262;28;20052;-68
2022/06/18 09:47:01;;;;;;;6.47;1.85;;;;;;;;;;5033921;28;20490;-68
2022/06/18 09:49:28;;;;;;;4.93;1.80;;;;;;;;;;5034162;28;20133;-68
2022/06/18 09:52:04;;;;;;;5.63;1.92;;;;;;;;;;5045656;28;20052;-67
2022/06/18 09:54:32;;;;;;;4.18;1.77;;;;;;;;;;5053348;28;20037;-67
2022/06/18 09:57:00;;;;;;;6.25;2.13;;;;;;;;;;5050009;28;20037;-67
2022/06/18 09:59:29;;;;;;;6.85;2.30;;;;;;;;;;5035004;28;20041;-68
2022/06/18 10:01:56;;;;;;;5.68;1.95;;;;;;;;;;5032929;28;20041;-67
2022/06/18 10:07:17;;;;;;;5.00;1.70;;;;;;;;;;5034692;28;20136;-68
2022/06/18 10:09:49;;;;;;;3.78;1.50;;;;;;;;;;5032923;28;20099;-68
2022/06/18 10:12:26;;;;;;;5.35;1.48;;;;;;;;;;5039728;28;20040;-68
2022/06/18 10:14:53;;;;;;;3.65;1.52;;;;;;;;;;5044270;28;20083;-68
2022/06/18 10:17:28;;;;;;;3.58;1.65;;;;;;;;;;5053917;28;20390;-68
2022/06/18 10:20:00;;;;;;;8.50;1.75;;;;;;;;;;5034282;28;20095;-68
2022/06/18 10:22:35;;;;;;;5.45;1.80;;;;;;;;;;5033319;28;20386;-68
2022/06/18 10:25:04;;;;;;;3.90;1.70;;;;;;;;;;5052230;28;20037;-69
2022/06/18 10:27:43;;;;;;;5.53;1.60;;;22.30;99.90;;;;;;5049248;28;20034;-68
2022/06/18 10:30:27;;;;;;;3.33;1.10;;;22.40;99.90;;;;;;5036333;28;20465;-68
2022/06/18 10:33:34;;;;;;;5.28;1.20;;;22.40;99.90;;;;;;5046434;28;20041;-67
2022/06/18 10:36:22;;;;;;;4.30;1.30;;;22.30;99.90;;;;;;5035646;28;20052;-67
2022/06/18 10:39:15;;;;;;;4.28;1.35;;;22.40;99.90;;;;;;5052792;28;20497;-67
2022/06/18 10:41:58;;;;;;;4.03;1.85;;;22.40;99.90;;;;;;5021175;28;20053;-68
2022/06/18 10:44:47;;;;;;;6.43;1.45;;;22.30;99.90;;;;;;5035685;28;20041;-68
2022/06/18 10:47:17;;;;;;;5.97;2.15;;;22.30;99.90;;;;;;5036504;28;20057;-68
2022/06/18 10:49:44;;;;;;;5.65;1.50;;;22.40;99.90;;;;;;5052558;28;20112;-68
2022/06/18 10:52:23;;;;;;;3.00;1.20;;;22.40;99.90;;;;;;5053451;28;20037;-68
2022/06/18 10:54:50;;;;;;;4.13;1.50;;;22.40;99.90;;;;;;5034357;28;20103;-68
2022/06/18 10:57:25;;;;;;;5.72;1.80;;;22.40;99.90;;;;;;5031627;28;20033;-68
2022/06/18 10:59:51;;;;;;;9.20;2.42;;;22.40;99.90;;;;;;5032253;28;20044;-68
2022/06/18 11:02:20;;;;;;;6.75;2.13;;;22.40;99.90;;;;;;5035248;28;20109;-68
2022/06/18 11:05:03;;;;;;;6.65;2.45;;;22.40;99.90;;;;;;5032566;28;20029;-68
2022/06/18 11:07:31;;;;;;;6.07;2.05;;;22.40;99.90;;;;;;5042407;28;20037;-68
2022/06/18 11:10:04;;;;;;;4.85;1.77;;;22.30;99.90;;;;;;5037137;28;20112;-68
2022/06/18 11:12:38;;;;;;;5.80;2.08;;;22.40;99.90;;;;;;5037555;28;20076;-69
2022/06/18 11:15:21;;;;;;;4.47;1.97;;;22.40;99.90;;;;;;5045399;28;20034;-68
2022/06/18 11:17:47;;;;;;;8.48;2.17;;;22.50;99.90;;;;;;5047911;28;20306;-68
2022/06/18 11:20:23;;;;;;;10.63;3.30;;;22.50;99.90;;;;;;5047581;28;20038;-69
2022/06/18 11:22:57;;;;;;;6.78;1.90;;;22.40;99.90;;;;;;5036794;28;20101;-69
2022/06/18 11:25:35;;;;;;;5.73;2.00;;;22.30;99.90;;;;;;5048126;28;20131;-70
2022/06/18 11:28:05;;;;;;;7.80;2.13;;;22.30;99.90;;;;;;5051006;28;20045;-71
2022/06/18 11:30:38;;;;;;;8.85;2.00;;;22.40;99.90;;;;;;5050293;28;20044;-68
2022/06/18 11:33:14;;;;;;;7.88;2.40;;;22.50;99.90;;;;;;5015408;28;20536;-72
2022/06/18 11:35:40;;;;;;;5.97;2.47;;;22.50;99.90;;;;;;5047526;28;20055;-69
2022/06/18 11:38:25;;;;;;;7.50;2.00;;;22.50;99.90;;;;;;5031007;28;20132;-68
2022/06/18 11:40:53;;;;;;;6.15;2.03;;;22.40;99.90;;;;;;5029953;28;20045;-69
2022/06/18 11:43:40;;;;;;;7.55;2.38;;;22.30;99.90;;;;;;5031142;28;20085;-68
2022/06/18 11:46:14;;;;;;;8.23;2.28;;;22.30;99.90;;;;;;5039589;28;20061;-69
2022/06/18 11:48:58;;;;;;;7.70;2.05;;;22.40;99.90;;;;;;5032194;28;20518;-71
2022/06/18 11:51:42;;;;;;;9.07;2.13;;;22.40;99.90;;;;;;5037364;28;20037;-67
2022/06/18 11:54:31;;;;;;;8.65;2.17;;;22.30;99.90;;;;;;5040210;28;20048;-68
2022/06/18 11:57:16;;;;;;;9.10;2.67;;;22.30;99.90;;;;;;5032890;28;20551;-68
2022/06/18 11:59:56;;;;;;;8.35;2.50;;;22.30;99.90;;;;;;5037345;28;20048;-67
2022/06/18 12:02:42;;;;;;;8.65;2.22;;;22.20;99.90;;;;;;5047628;28;20041;-67
2022/06/18 12:05:34;;;;;;;9.18;2.80;;;22.30;99.90;;;;;;5036308;28;20049;-67
2022/06/18 12:08:02;;;;;;;10.20;2.90;;;22.40;99.90;;;;;;5031045;28;20087;-68
2022/06/18 12:10:36;;;;;;;7.72;2.20;;;22.40;99.90;;;;;;5029153;28;20064;-68
2022/06/18 12:13:08;;;;;;;11.13;2.28;;;22.50;99.90;;;;;;5046288;28;20140;-69
2022/06/18 12:15:42;;;;;;;6.53;1.92;;;22.40;99.90;;;;;;5036231;28;20118;-69
2022/06/18 12:18:18;;;;;;;9.07;2.50;;;22.40;99.90;;;;;;5042971;28;20071;-69
2022/06/18 12:21:10;;;;;;;9.95;2.40;;;22.30;99.90;;;;;;5043399;28;20037;-69
2022/06/18 12:24:08;;;;;;;8.63;2.70;;;22.20;99.90;;;;;;5043590;28;20378;-69
2022/06/18 12:26:59;;;;;;;8.88;2.60;;;22.10;99.90;;;;;;5028976;28;20752;-69
2022/06/18 12:29:28;;;;;;;6.70;3.03;;;22.00;99.90;;;;;;5017361;28;20080;-69
2022/06/18 12:32:48;;;;;;;8.38;2.40;;;21.90;99.90;;;;;;5047597;28;20041;-68
2022/06/18 12:35:21;;;;;;;9.80;2.72;;;21.90;99.90;;;;;;5006844;28;20042;-68
2022/06/18 12:37:59;;;;;;;9.65;2.30;;;21.90;99.90;;;;;;5029944;28;20065;-67
2022/06/18 12:40:47;;;;;;;8.75;3.08;;;21.90;99.90;;;;;;5034071;28;20516;-68
2022/06/18 12:43:34;;;;;;;12.70;3.08;;;21.90;99.90;;;;;;5035272;28;20087;-69
2022/06/18 12:46:04;;;;;;;11.27;3.05;;;21.90;99.90;;;;;;5031128;28;20063;-69
2022/06/18 12:48:45;;;;;;;12.25;3.00;;;21.80;99.90;;;;;;5041707;28;20041;-69
2022/06/18 12:51:22;;;;;;;7.88;2.33;;;21.90;99.90;;;;;;5036705;28;20040;-70
2022/06/18 12:54:02;;;;;;;8.05;2.28;;;21.50;99.90;;;;;;5016153;28;20045;-68
2022/06/18 12:56:49;;;;;;;12.40;3.22;;;21.90;99.90;;;;;;5023364;28;20087;-68
2022/06/18 12:59:43;;;;;;;10.82;2.33;;;21.80;99.90;;;;;;5037205;28;20053;-72
2022/06/18 13:02:47;;;;;;;11.75;2.65;;;21.80;99.90;;;;;;5028466;28;20061;-71
2022/06/18 13:05:20;;;;;;;10.13;2.35;;;21.70;99.90;;;;;;5040288;28;20052;-71
2022/06/18 13:08:08;;;;;;;10.67;2.23;;;21.90;99.90;;;;;;5041375;28;20045;-68
2022/06/18 13:10:36;;;;;;;7.35;2.38;;;22.00;99.90;;;;;;5013241;28;20436;-67
2022/06/18 13:13:26;;;;;;;9.27;2.25;;;21.90;99.20;;;;;;5034431;28;20048;-67
2022/06/18 13:16:33;;;;;;;7.30;2.40;;;21.90;97.80;;;;;;5029393;28;20073;-72
2022/06/18 13:19:08;;;;;;;10.05;2.45;;;21.80;99.90;;;;;;5033079;28;20053;-68
2022/06/18 13:21:33;;;;;;;10.57;2.35;;;21.40;99.90;;;;;;5044806;28;20041;-68
2022/06/18 13:29:56;;;;;;;12.27;2.28;;;21.20;99.90;;;;;;5049379;28;20096;-67
2022/06/18 13:32:37;;;;;;;9.15;1.90;;;21.50;99.90;;;;;;5040673;28;20045;-67
2022/06/18 13:35:26;;;;;;;8.13;2.03;;;21.60;99.90;;;;;;5034954;28;20087;-67
2022/06/18 13:38:10;;;;;;;9.90;2.40;;;21.80;99.90;;;;;;5048452;28;20403;-67
2022/06/18 13:40:39;;;;;;;10.23;2.40;;;21.60;99.90;;;;;;5040427;28;20044;-67
2022/06/18 13:43:17;;;;;;;6.55;2.03;;;21.60;99.90;;;;;;5036410;28;20512;-67
2022/06/18 13:46:21;;;;;;;9.13;2.72;;;21.70;99.90;;;;;;5035424;28;20049;-67